sensor_id;sensor_type;location;lat;lon;timestamp;P1;durP1;ratioP1;P2;durP2;ratioP2
27684;SDS011;46113;50.130;8.526;2022-11-20T05:15:19;19.52;;;11.15;;
27684;SDS011;46113;50.130;8.526;2022-11-20T05:17:46;18.55;;;11.07;;
27684;SDS011;46113;50.130;8.526;2022-11-20T05:20:14;22.10;;;11.85;;
27684;SDS011;46113;50.130;8.526;2022-11-20T05:22:40;21.35;;;11.07;;
27684;SDS011;46113;50.130;8.526;2022-11-20T05:25:07;18.75;;;11.15;;
27684;SDS011;46113;50.130;8.526;2022-11-20T05:27:34;19.67;;;11.18;;
27684;SDS011;46113;50.130;8.526;2022-11-20T05:30:00;15.90;;;10.27;;
27684;SDS011;46113;50.130;8.526;2022-11-20T05:32:26;21.42;;;10.85;;
27684;SDS011;46113;50.130;8.526;2022-11-20T05:34:53;20.25;;;11.48;;
27684;SDS011;46113;50.130;8.526;2022-11-20T05:37:19;20.08;;;10.80;;
27684;SDS011;46113;50.130;8.526;2022-11-20T05:39:46;21.67;;;11.55;;
27684;SDS011;46113;50.130;8.526;2022-11-20T05:42:12;19.73;;;10.98;;
27684;SDS011;46113;50.130;8.526;2022-11-20T05:45:01;19.67;;;10.90;;
27684;SDS011;46113;50.130;8.526;2022-11-20T05:47:33;20.35;;;11.20;;
27684;SDS011;46113;50.130;8.526;2022-11-20T05:50:00;19.30;;;11.15;;
27684;SDS011;46113;50.130;8.526;2022-11-20T05:52:30;17.92;;;10.80;;
27684;SDS011;46113;50.130;8.526;2022-11-20T05:54:57;18.58;;;11.60;;
27684;SDS011;46113;50.130;8.526;2022-11-20T05:57:23;21.98;;;11.32;;
27684;SDS011;46113;50.130;8.526;2022-11-20T05:59:50;19.73;;;11.90;;
27684;SDS011;46113;50.130;8.526;2022-11-20T06:02:16;16.73;;;10.57;;
27684;SDS011;46113;50.130;8.526;2022-11-20T06:04:43;17.27;;;10.77;;
27684;SDS011;46113;50.130;8.526;2022-11-20T06:07:09;22.13;;;11.70;;
27684;SDS011;46113;50.130;8.526;2022-11-20T06:09:36;19.00;;;10.73;;
27684;SDS011;46113;50.130;8.526;2022-11-20T06:12:03;20.13;;;11.40;;
27684;SDS011;46113;50.130;8.526;2022-11-20T06:14:29;19.85;;;11.88;;
27684;SDS011;46113;50.130;8.526;2022-11-20T06:16:56;20.35;;;11.50;;
27684;SDS011;46113;50.130;8.526;2022-11-20T06:19:22;19.42;;;11.15;;
27684;SDS011;46113;50.130;8.526;2022-11-20T06:21:49;20.05;;;11.60;;
27684;SDS011;46113;50.130;8.526;2022-11-20T06:24:16;18.73;;;10.98;;
27684;SDS011;46113;50.130;8.526;2022-11-20T06:26:43;18.40;;;10.75;;
27684;SDS011;46113;50.130;8.526;2022-11-20T06:29:10;18.63;;;10.95;;
27684;SDS011;46113;50.130;8.526;2022-11-20T06:31:37;18.83;;;11.32;;
27684;SDS011;46113;50.130;8.526;2022-11-20T06:34:04;22.63;;;12.38;;
27684;SDS011;46113;50.130;8.526;2022-11-20T06:36:32;23.33;;;12.27;;
27684;SDS011;46113;50.130;8.526;2022-11-20T06:38:59;20.65;;;11.98;;
27684;SDS011;46113;50.130;8.526;2022-11-20T06:41:26;22.50;;;11.80;;
27684;SDS011;46113;50.130;8.526;2022-11-20T06:43:54;23.65;;;13.45;;
27684;SDS011;46113;50.130;8.526;2022-11-20T06:46:21;23.13;;;11.93;;
27684;SDS011;46113;50.130;8.526;2022-11-20T06:48:48;22.10;;;12.88;;
27684;SDS011;46113;50.130;8.526;2022-11-20T06:51:15;25.67;;;14.02;;
27684;SDS011;46113;50.130;8.526;2022-11-20T06:53:42;23.67;;;13.38;;
27684;SDS011;46113;50.130;8.526;2022-11-20T06:56:08;26.95;;;13.52;;
27684;SDS011;46113;50.130;8.526;2022-11-20T06:58:35;27.10;;;13.80;;
27684;SDS011;46113;50.130;8.526;2022-11-20T07:01:06;24.80;;;13.38;;
27684;SDS011;46113;50.130;8.526;2022-11-20T07:03:37;23.35;;;13.00;;
27684;SDS011;46113;50.130;8.526;2022-11-20T07:06:04;29.27;;;13.35;;
27684;SDS011;46113;50.130;8.526;2022-11-20T07:08:31;25.13;;;13.13;;
27684;SDS011;46113;50.130;8.526;2022-11-20T07:10:59;21.80;;;12.57;;
27684;SDS011;46113;50.130;8.526;2022-11-20T07:13:27;24.40;;;12.88;;
27684;SDS011;46113;50.130;8.526;2022-11-20T07:15:54;24.38;;;13.88;;
27684;SDS011;46113;50.130;8.526;2022-11-20T07:18:21;24.80;;;13.90;;
27684;SDS011;46113;50.130;8.526;2022-11-20T07:20:48;29.63;;;14.10;;
27684;SDS011;46113;50.130;8.526;2022-11-20T07:23:14;25.05;;;13.10;;
27684;SDS011;46113;50.130;8.526;2022-11-20T07:25:41;25.00;;;13.77;;
27684;SDS011;46113;50.130;8.526;2022-11-20T07:28:07;27.25;;;13.63;;
27684;SDS011;46113;50.130;8.526;2022-11-20T07:30:34;27.52;;;13.77;;
27684;SDS011;46113;50.130;8.526;2022-11-20T07:33:00;28.65;;;14.30;;
27684;SDS011;46113;50.130;8.526;2022-11-20T07:35:27;28.00;;;14.13;;
27684;SDS011;46113;50.130;8.526;2022-11-20T07:37:53;26.83;;;14.30;;
27684;SDS011;46113;50.130;8.526;2022-11-20T07:40:20;24.85;;;13.98;;
27684;SDS011;46113;50.130;8.526;2022-11-20T07:42:50;29.25;;;15.15;;
27684;SDS011;46113;50.130;8.526;2022-11-20T07:45:19;24.60;;;13.25;;
27684;SDS011;46113;50.130;8.526;2022-11-20T07:47:46;27.90;;;14.65;;
27684;SDS011;46113;50.130;8.526;2022-11-20T07:50:13;28.10;;;14.65;;
27684;SDS011;46113;50.130;8.526;2022-11-20T07:52:40;31.90;;;15.43;;
27684;SDS011;46113;50.130;8.526;2022-11-20T07:55:07;27.27;;;15.02;;
27684;SDS011;46113;50.130;8.526;2022-11-20T07:57:34;27.67;;;13.88;;
27684;SDS011;46113;50.130;8.526;2022-11-20T08:00:02;27.02;;;15.20;;
27684;SDS011;46113;50.130;8.526;2022-11-20T08:02:37;27.08;;;14.68;;
27684;SDS011;46113;50.130;8.526;2022-11-20T08:05:05;28.02;;;13.88;;
27684;SDS011;46113;50.130;8.526;2022-11-20T08:07:39;27.70;;;14.55;;
27684;SDS011;46113;50.130;8.526;2022-11-20T08:10:08;30.48;;;14.98;;
27684;SDS011;46113;50.130;8.526;2022-11-20T08:12:43;26.10;;;14.48;;
27684;SDS011;46113;50.130;8.526;2022-11-20T08:15:29;28.40;;;14.60;;
27684;SDS011;46113;50.130;8.526;2022-11-20T08:18:06;35.80;;;15.85;;
27684;SDS011;46113;50.130;8.526;2022-11-20T08:20:57;28.63;;;15.52;;
27684;SDS011;46113;50.130;8.526;2022-11-20T08:23:27;30.77;;;15.18;;
27684;SDS011;46113;50.130;8.526;2022-11-20T08:25:55;37.90;;;15.95;;
27684;SDS011;46113;50.130;8.526;2022-11-20T08:28:21;28.55;;;13.65;;
27684;SDS011;46113;50.130;8.526;2022-11-20T08:30:48;36.22;;;16.17;;
27684;SDS011;46113;50.130;8.526;2022-11-20T08:33:18;41.40;;;17.67;;
27684;SDS011;46113;50.130;8.526;2022-11-20T08:35:46;28.92;;;15.60;;
27684;SDS011;46113;50.130;8.526;2022-11-20T08:38:13;35.45;;;16.60;;
27684;SDS011;46113;50.130;8.526;2022-11-20T08:40:41;33.95;;;16.83;;
27684;SDS011;46113;50.130;8.526;2022-11-20T08:43:29;35.28;;;15.45;;
27684;SDS011;46113;50.130;8.526;2022-11-20T08:45:56;32.97;;;16.17;;
27684;SDS011;46113;50.130;8.526;2022-11-20T08:48:23;35.83;;;17.10;;
27684;SDS011;46113;50.130;8.526;2022-11-20T08:50:51;32.22;;;15.63;;
27684;SDS011;46113;50.130;8.526;2022-11-20T08:53:19;37.53;;;15.68;;
27684;SDS011;46113;50.130;8.526;2022-11-20T08:55:45;30.88;;;14.98;;
27684;SDS011;46113;50.130;8.526;2022-11-20T08:58:17;37.13;;;17.15;;
27684;SDS011;46113;50.130;8.526;2022-11-20T09:00:45;31.63;;;16.00;;
27684;SDS011;46113;50.130;8.526;2022-11-20T09:03:13;39.42;;;16.45;;
27684;SDS011;46113;50.130;8.526;2022-11-20T09:05:40;35.30;;;17.17;;
27684;SDS011;46113;50.130;8.526;2022-11-20T09:08:08;36.72;;;16.48;;
27684;SDS011;46113;50.130;8.526;2022-11-20T09:10:34;37.03;;;16.88;;
27684;SDS011;46113;50.130;8.526;2022-11-20T09:13:02;33.55;;;17.50;;
27684;SDS011;46113;50.130;8.526;2022-11-20T09:15:29;38.10;;;15.70;;
27684;SDS011;46113;50.130;8.526;2022-11-20T09:17:57;40.03;;;16.83;;
27684;SDS011;46113;50.130;8.526;2022-11-20T09:20:25;36.22;;;17.65;;
27684;SDS011;46113;50.130;8.526;2022-11-20T09:22:56;37.95;;;17.33;;
27684;SDS011;46113;50.130;8.526;2022-11-20T09:25:23;37.95;;;18.17;;
27684;SDS011;46113;50.130;8.526;2022-11-20T09:27:56;37.05;;;17.17;;
27684;SDS011;46113;50.130;8.526;2022-11-20T09:30:23;34.67;;;17.88;;
27684;SDS011;46113;50.130;8.526;2022-11-20T09:32:51;34.60;;;16.48;;
27684;SDS011;46113;50.130;8.526;2022-11-20T09:35:18;39.60;;;18.63;;
27684;SDS011;46113;50.130;8.526;2022-11-20T09:37:50;42.35;;;17.55;;
27684;SDS011;46113;50.130;8.526;2022-11-20T09:40:21;34.83;;;17.25;;
27684;SDS011;46113;50.130;8.526;2022-11-20T09:42:59;36.17;;;16.67;;
27684;SDS011;46113;50.130;8.526;2022-11-20T09:52:22;34.58;;;17.52;;
27684;SDS011;46113;50.130;8.526;2022-11-20T09:57:20;38.03;;;15.32;;
27684;SDS011;46113;50.130;8.526;2022-11-20T09:59:59;35.53;;;17.17;;
27684;SDS011;46113;50.130;8.526;2022-11-20T10:05:27;37.47;;;16.98;;
27684;SDS011;46113;50.130;8.526;2022-11-20T10:08:10;32.60;;;17.38;;
27684;SDS011;46113;50.130;8.526;2022-11-20T10:22:27;35.30;;;15.30;;
27684;SDS011;46113;50.130;8.526;2022-11-20T10:24:59;35.67;;;14.50;;
27684;SDS011;46113;50.130;8.526;2022-11-20T10:30:40;32.95;;;14.05;;
27684;SDS011;46113;50.130;8.526;2022-11-20T10:35:55;38.95;;;18.77;;
27684;SDS011;46113;50.130;8.526;2022-11-20T10:38:47;38.38;;;17.40;;
27684;SDS011;46113;50.130;8.526;2022-11-20T10:41:21;31.83;;;16.17;;
27684;SDS011;46113;50.130;8.526;2022-11-20T10:47:05;33.63;;;16.05;;
27684;SDS011;46113;50.130;8.526;2022-11-20T10:49:36;42.60;;;17.48;;
27684;SDS011;46113;50.130;8.526;2022-11-20T10:54:39;37.92;;;19.23;;
27684;SDS011;46113;50.130;8.526;2022-11-20T10:57:19;38.75;;;17.58;;
27684;SDS011;46113;50.130;8.526;2022-11-20T10:59:54;39.25;;;18.33;;
27684;SDS011;46113;50.130;8.526;2022-11-20T11:05:14;46.92;;;19.70;;
27684;SDS011;46113;50.130;8.526;2022-11-20T11:07:49;43.15;;;19.38;;
27684;SDS011;46113;50.130;8.526;2022-11-20T11:10:34;46.95;;;18.42;;
27684;SDS011;46113;50.130;8.526;2022-11-20T11:13:07;43.17;;;18.85;;
27684;SDS011;46113;50.130;8.526;2022-11-20T11:15:44;41.75;;;19.60;;
27684;SDS011;46113;50.130;8.526;2022-11-20T11:18:11;43.72;;;20.40;;
27684;SDS011;46113;50.130;8.526;2022-11-20T11:20:52;40.42;;;18.75;;
27684;SDS011;46113;50.130;8.526;2022-11-20T11:26:00;43.35;;;18.98;;
27684;SDS011;46113;50.130;8.526;2022-11-20T11:28:28;41.05;;;20.08;;
27684;SDS011;46113;50.130;8.526;2022-11-20T11:30:54;43.15;;;20.48;;
27684;SDS011;46113;50.130;8.526;2022-11-20T11:33:25;43.17;;;18.50;;
27684;SDS011;46113;50.130;8.526;2022-11-20T11:35:56;46.22;;;20.60;;
27684;SDS011;46113;50.130;8.526;2022-11-20T11:38:34;55.42;;;21.30;;
27684;SDS011;46113;50.130;8.526;2022-11-20T11:41:03;44.92;;;18.17;;
27684;SDS011;46113;50.130;8.526;2022-11-20T11:43:32;44.13;;;20.98;;
27684;SDS011;46113;50.130;8.526;2022-11-20T11:46:32;41.47;;;18.77;;
27684;SDS011;46113;50.130;8.526;2022-11-20T11:54:32;44.97;;;19.95;;
27684;SDS011;46113;50.130;8.526;2022-11-20T11:57:49;42.63;;;20.02;;
27684;SDS011;46113;50.130;8.526;2022-11-20T12:00:14;37.80;;;18.77;;
27684;SDS011;46113;50.130;8.526;2022-11-20T12:10:21;36.58;;;18.40;;
27684;SDS011;46113;50.130;8.526;2022-11-20T12:12:54;36.95;;;16.73;;
27684;SDS011;46113;50.130;8.526;2022-11-20T12:15:30;35.15;;;16.67;;
27684;SDS011;46113;50.130;8.526;2022-11-20T12:17:59;28.83;;;16.13;;
27684;SDS011;46113;50.130;8.526;2022-11-20T12:20:28;32.75;;;16.88;;
27684;SDS011;46113;50.130;8.526;2022-11-20T12:23:23;31.45;;;16.40;;
27684;SDS011;46113;50.130;8.526;2022-11-20T12:25:54;32.67;;;15.20;;
27684;SDS011;46113;50.130;8.526;2022-11-20T12:33:54;24.88;;;13.80;;
27684;SDS011;46113;50.130;8.526;2022-11-20T12:39:36;30.08;;;15.63;;
27684;SDS011;46113;50.130;8.526;2022-11-20T12:42:32;30.85;;;15.20;;
27684;SDS011;46113;50.130;8.526;2022-11-20T12:45:31;33.53;;;17.05;;
27684;SDS011;46113;50.130;8.526;2022-11-20T12:48:17;31.83;;;15.93;;
27684;SDS011;46113;50.130;8.526;2022-11-20T12:54:04;35.63;;;16.90;;
27684;SDS011;46113;50.130;8.526;2022-11-20T13:01:40;30.73;;;16.52;;
27684;SDS011;46113;50.130;8.526;2022-11-20T13:07:24;31.42;;;16.30;;
27684;SDS011;46113;50.130;8.526;2022-11-20T13:09:56;37.65;;;17.85;;
27684;SDS011;46113;50.130;8.526;2022-11-20T13:15:00;29.25;;;15.30;;
27684;SDS011;46113;50.130;8.526;2022-11-20T13:17:35;33.00;;;17.27;;
27684;SDS011;46113;50.130;8.526;2022-11-20T13:20:13;29.27;;;16.35;;
27684;SDS011;46113;50.130;8.526;2022-11-20T13:25:25;31.95;;;16.52;;
27684;SDS011;46113;50.130;8.526;2022-11-20T13:27:52;27.98;;;16.00;;
27684;SDS011;46113;50.130;8.526;2022-11-20T13:30:21;28.00;;;14.25;;
27684;SDS011;46113;50.130;8.526;2022-11-20T13:32:56;28.90;;;15.05;;
27684;SDS011;46113;50.130;8.526;2022-11-20T13:35:31;25.52;;;14.85;;
27684;SDS011;46113;50.130;8.526;2022-11-20T13:38:07;28.65;;;14.85;;
27684;SDS011;46113;50.130;8.526;2022-11-20T13:40:51;30.02;;;16.02;;
27684;SDS011;46113;50.130;8.526;2022-11-20T13:43:35;25.63;;;14.25;;
27684;SDS011;46113;50.130;8.526;2022-11-20T13:46:05;31.92;;;15.32;;
27684;SDS011;46113;50.130;8.526;2022-11-20T13:48:34;29.55;;;15.30;;
27684;SDS011;46113;50.130;8.526;2022-11-20T13:56:39;28.55;;;16.48;;
27684;SDS011;46113;50.130;8.526;2022-11-20T14:02:11;30.30;;;15.98;;
27684;SDS011;46113;50.130;8.526;2022-11-20T14:04:42;29.57;;;14.93;;
27684;SDS011;46113;50.130;8.526;2022-11-20T14:07:12;33.05;;;15.60;;
27684;SDS011;46113;50.130;8.526;2022-11-20T14:09:51;33.83;;;15.02;;
27684;SDS011;46113;50.130;8.526;2022-11-20T14:12:22;26.60;;;14.50;;
27684;SDS011;46113;50.130;8.526;2022-11-20T14:14:57;26.35;;;13.15;;
27684;SDS011;46113;50.130;8.526;2022-11-20T14:17:31;24.85;;;14.07;;
27684;SDS011;46113;50.130;8.526;2022-11-20T14:20:00;28.45;;;14.80;;
27684;SDS011;46113;50.130;8.526;2022-11-20T14:22:31;28.75;;;13.55;;
27684;SDS011;46113;50.130;8.526;2022-11-20T14:27:27;23.02;;;13.38;;
27684;SDS011;46113;50.130;8.526;2022-11-20T14:29:54;22.05;;;13.50;;
27684;SDS011;46113;50.130;8.526;2022-11-20T14:32:22;25.45;;;12.25;;
27684;SDS011;46113;50.130;8.526;2022-11-20T14:35:02;20.90;;;12.02;;
27684;SDS011;46113;50.130;8.526;2022-11-20T14:37:36;20.10;;;11.57;;
27684;SDS011;46113;50.130;8.526;2022-11-20T14:40:21;20.98;;;12.18;;
27684;SDS011;46113;50.130;8.526;2022-11-20T14:42:49;22.85;;;12.13;;
27684;SDS011;46113;50.130;8.526;2022-11-20T14:45:16;23.27;;;11.95;;
27684;SDS011;46113;50.130;8.526;2022-11-20T14:47:43;19.50;;;11.52;;
27684;SDS011;46113;50.130;8.526;2022-11-20T14:50:24;21.75;;;11.75;;
27684;SDS011;46113;50.130;8.526;2022-11-20T14:52:56;21.73;;;11.88;;
27684;SDS011;46113;50.130;8.526;2022-11-20T14:58:02;25.27;;;14.20;;
27684;SDS011;46113;50.130;8.526;2022-11-20T15:00:34;24.60;;;14.50;;
27684;SDS011;46113;50.130;8.526;2022-11-20T15:03:01;28.10;;;15.48;;
27684;SDS011;46113;50.130;8.526;2022-11-20T15:05:47;25.50;;;14.23;;
27684;SDS011;46113;50.130;8.526;2022-11-20T15:08:15;23.55;;;12.82;;
27684;SDS011;46113;50.130;8.526;2022-11-20T15:10:47;24.77;;;13.65;;
27684;SDS011;46113;50.130;8.526;2022-11-20T15:13:16;22.08;;;13.55;;
27684;SDS011;46113;50.130;8.526;2022-11-20T15:15:50;26.08;;;14.63;;
27684;SDS011;46113;50.130;8.526;2022-11-20T15:18:22;28.65;;;15.65;;
27684;SDS011;46113;50.130;8.526;2022-11-20T15:20:50;33.95;;;16.77;;
27684;SDS011;46113;50.130;8.526;2022-11-20T15:23:18;28.13;;;15.23;;
27684;SDS011;46113;50.130;8.526;2022-11-20T15:25:45;28.77;;;15.43;;
27684;SDS011;46113;50.130;8.526;2022-11-20T15:30:48;28.63;;;14.90;;
27684;SDS011;46113;50.130;8.526;2022-11-20T15:33:15;26.95;;;14.55;;
27684;SDS011;46113;50.130;8.526;2022-11-20T15:35:43;28.40;;;15.18;;
27684;SDS011;46113;50.130;8.526;2022-11-20T15:38:10;32.20;;;15.02;;
27684;SDS011;46113;50.130;8.526;2022-11-20T15:40:36;26.75;;;16.10;;
27684;SDS011;46113;50.130;8.526;2022-11-20T15:43:03;24.40;;;14.38;;
27684;SDS011;46113;50.130;8.526;2022-11-20T15:45:55;24.95;;;14.30;;
27684;SDS011;46113;50.130;8.526;2022-11-20T15:48:26;25.27;;;13.80;;
27684;SDS011;46113;50.130;8.526;2022-11-20T15:50:59;26.73;;;15.95;;
27684;SDS011;46113;50.130;8.526;2022-11-20T15:53:29;26.95;;;15.57;;
27684;SDS011;46113;50.130;8.526;2022-11-20T15:55:56;26.45;;;14.02;;
27684;SDS011;46113;50.130;8.526;2022-11-20T15:58:23;22.85;;;13.38;;
27684;SDS011;46113;50.130;8.526;2022-11-20T16:00:50;26.50;;;14.68;;
27684;SDS011;46113;50.130;8.526;2022-11-20T16:03:17;25.58;;;14.30;;
27684;SDS011;46113;50.130;8.526;2022-11-20T16:05:44;27.60;;;14.40;;
27684;SDS011;46113;50.130;8.526;2022-11-20T16:08:11;27.58;;;15.77;;
27684;SDS011;46113;50.130;8.526;2022-11-20T16:10:39;24.30;;;14.32;;
27684;SDS011;46113;50.130;8.526;2022-11-20T16:13:13;23.40;;;13.68;;
27684;SDS011;46113;50.130;8.526;2022-11-20T16:16:04;21.05;;;11.27;;
27684;SDS011;46113;50.130;8.526;2022-11-20T16:18:35;28.20;;;13.27;;
27684;SDS011;46113;50.130;8.526;2022-11-20T16:21:01;23.27;;;13.95;;
27684;SDS011;46113;50.130;8.526;2022-11-20T16:23:28;22.95;;;12.95;;
27684;SDS011;46113;50.130;8.526;2022-11-20T16:25:55;22.23;;;12.57;;
27684;SDS011;46113;50.130;8.526;2022-11-20T16:28:21;20.63;;;11.90;;
27684;SDS011;46113;50.130;8.526;2022-11-20T16:30:48;24.13;;;13.43;;
27684;SDS011;46113;50.130;8.526;2022-11-20T16:33:15;22.25;;;12.50;;
27684;SDS011;46113;50.130;8.526;2022-11-20T16:35:45;23.80;;;12.15;;
27684;SDS011;46113;50.130;8.526;2022-11-20T16:38:12;25.73;;;13.88;;
27684;SDS011;46113;50.130;8.526;2022-11-20T16:40:40;27.38;;;13.60;;
27684;SDS011;46113;50.130;8.526;2022-11-20T16:43:08;24.80;;;12.52;;
27684;SDS011;46113;50.130;8.526;2022-11-20T16:45:40;20.90;;;11.88;;
27684;SDS011;46113;50.130;8.526;2022-11-20T16:48:11;24.60;;;13.57;;
27684;SDS011;46113;50.130;8.526;2022-11-20T16:51:13;22.30;;;12.50;;
27684;SDS011;46113;50.130;8.526;2022-11-20T16:53:33;26.00;;;12.90;;
27684;SDS011;46113;50.130;8.526;2022-11-20T16:56:22;23.88;;;13.63;;
27684;SDS011;46113;50.130;8.526;2022-11-20T16:58:49;22.52;;;12.98;;
27684;SDS011;46113;50.130;8.526;2022-11-20T17:04:13;21.73;;;12.02;;
27684;SDS011;46113;50.130;8.526;2022-11-20T17:06:40;19.77;;;12.05;;
27684;SDS011;46113;50.130;8.526;2022-11-20T17:09:09;18.25;;;10.77;;
27684;SDS011;46113;50.130;8.526;2022-11-20T17:11:36;24.63;;;11.38;;
27684;SDS011;46113;50.130;8.526;2022-11-20T17:14:03;20.98;;;12.55;;
27684;SDS011;46113;50.130;8.526;2022-11-20T17:16:33;23.77;;;12.65;;
27684;SDS011;46113;50.130;8.526;2022-11-20T17:19:01;24.58;;;12.45;;
27684;SDS011;46113;50.130;8.526;2022-11-20T17:21:30;25.42;;;13.98;;
27684;SDS011;46113;50.130;8.526;2022-11-20T17:24:02;20.17;;;11.43;;
27684;SDS011;46113;50.130;8.526;2022-11-20T17:26:30;24.20;;;13.10;;
27684;SDS011;46113;50.130;8.526;2022-11-20T17:28:58;22.33;;;12.48;;
27684;SDS011;46113;50.130;8.526;2022-11-20T17:31:32;23.23;;;13.05;;
27684;SDS011;46113;50.130;8.526;2022-11-20T17:34:01;21.63;;;11.68;;
27684;SDS011;46113;50.130;8.526;2022-11-20T17:36:28;18.80;;;11.38;;
27684;SDS011;46113;50.130;8.526;2022-11-20T17:38:55;20.55;;;11.93;;
27684;SDS011;46113;50.130;8.526;2022-11-20T17:41:22;23.10;;;12.57;;
27684;SDS011;46113;50.130;8.526;2022-11-20T17:43:55;21.83;;;12.45;;
27684;SDS011;46113;50.130;8.526;2022-11-20T17:46:24;23.40;;;12.32;;
27684;SDS011;46113;50.130;8.526;2022-11-20T17:48:52;26.92;;;13.02;;
27684;SDS011;46113;50.130;8.526;2022-11-20T17:51:20;21.65;;;12.02;;
27684;SDS011;46113;50.130;8.526;2022-11-20T17:53:51;22.00;;;12.18;;
27684;SDS011;46113;50.130;8.526;2022-11-20T17:56:21;20.27;;;12.38;;
27684;SDS011;46113;50.130;8.526;2022-11-20T17:59:07;22.63;;;11.75;;
27684;SDS011;46113;50.130;8.526;2022-11-20T18:01:35;21.30;;;12.95;;
27684;SDS011;46113;50.130;8.526;2022-11-20T18:04:02;23.42;;;12.20;;
27684;SDS011;46113;50.130;8.526;2022-11-20T18:06:30;21.52;;;12.90;;
27684;SDS011;46113;50.130;8.526;2022-11-20T18:08:57;23.92;;;12.40;;
27684;SDS011;46113;50.130;8.526;2022-11-20T18:11:25;21.45;;;11.68;;
27684;SDS011;46113;50.130;8.526;2022-11-20T18:13:54;19.40;;;11.23;;
27684;SDS011;46113;50.130;8.526;2022-11-20T18:16:46;25.52;;;13.27;;
27684;SDS011;46113;50.130;8.526;2022-11-20T18:19:16;23.42;;;12.02;;
27684;SDS011;46113;50.130;8.526;2022-11-20T18:21:45;20.17;;;12.40;;
27684;SDS011;46113;50.130;8.526;2022-11-20T18:24:12;22.95;;;11.40;;
27684;SDS011;46113;50.130;8.526;2022-11-20T18:26:39;23.55;;;12.13;;
27684;SDS011;46113;50.130;8.526;2022-11-20T18:29:16;20.80;;;12.65;;
27684;SDS011;46113;50.130;8.526;2022-11-20T18:31:43;27.25;;;13.52;;
27684;SDS011;46113;50.130;8.526;2022-11-20T18:34:10;20.35;;;11.52;;
27684;SDS011;46113;50.130;8.526;2022-11-20T18:36:39;20.35;;;11.63;;
27684;SDS011;46113;50.130;8.526;2022-11-20T18:39:08;22.20;;;12.90;;
27684;SDS011;46113;50.130;8.526;2022-11-20T18:41:36;24.33;;;12.93;;
27684;SDS011;46113;50.130;8.526;2022-11-20T18:44:23;22.63;;;12.18;;
27684;SDS011;46113;50.130;8.526;2022-11-20T18:47:11;21.63;;;12.10;;
27684;SDS011;46113;50.130;8.526;2022-11-20T18:49:44;22.05;;;11.60;;
27684;SDS011;46113;50.130;8.526;2022-11-20T18:52:21;21.60;;;10.93;;
27684;SDS011;46113;50.130;8.526;2022-11-20T18:54:52;22.02;;;12.75;;
27684;SDS011;46113;50.130;8.526;2022-11-20T18:57:21;17.15;;;10.75;;
27684;SDS011;46113;50.130;8.526;2022-11-20T18:59:49;22.58;;;11.95;;
27684;SDS011;46113;50.130;8.526;2022-11-20T19:02:17;21.13;;;11.48;;
27684;SDS011;46113;50.130;8.526;2022-11-20T19:04:45;22.80;;;12.20;;
27684;SDS011;46113;50.130;8.526;2022-11-20T19:07:12;22.92;;;11.93;;
27684;SDS011;46113;50.130;8.526;2022-11-20T19:09:40;26.20;;;12.45;;
27684;SDS011;46113;50.130;8.526;2022-11-20T19:12:08;26.55;;;12.07;;
27684;SDS011;46113;50.130;8.526;2022-11-20T19:14:36;25.08;;;13.07;;
27684;SDS011;46113;50.130;8.526;2022-11-20T19:17:04;26.77;;;13.65;;
27684;SDS011;46113;50.130;8.526;2022-11-20T19:19:35;18.92;;;11.15;;
27684;SDS011;46113;50.130;8.526;2022-11-20T19:22:05;32.08;;;11.15;;
27684;SDS011;46113;50.130;8.526;2022-11-20T19:24:33;17.98;;;10.23;;
27684;SDS011;46113;50.130;8.526;2022-11-20T19:27:12;19.23;;;9.65;;
27684;SDS011;46113;50.130;8.526;2022-11-20T19:29:39;15.43;;;7.68;;
27684;SDS011;46113;50.130;8.526;2022-11-20T19:32:05;18.30;;;8.85;;
27684;SDS011;46113;50.130;8.526;2022-11-20T19:34:32;18.35;;;7.63;;
27684;SDS011;46113;50.130;8.526;2022-11-20T19:36:58;16.25;;;7.38;;
27684;SDS011;46113;50.130;8.526;2022-11-20T19:39:26;4.85;;;3.45;;
27684;SDS011;46113;50.130;8.526;2022-11-20T19:41:52;2.80;;;1.73;;
27684;SDS011;46113;50.130;8.526;2022-11-20T19:44:21;3.67;;;1.70;;
27684;SDS011;46113;50.130;8.526;2022-11-20T19:46:48;3.45;;;1.50;;
27684;SDS011;46113;50.130;8.526;2022-11-20T19:49:16;1.13;;;0.70;;
27684;SDS011;46113;50.130;8.526;2022-11-20T19:51:46;1.90;;;0.80;;
27684;SDS011;46113;50.130;8.526;2022-11-20T19:54:14;0.50;;;0.50;;
27684;SDS011;46113;50.130;8.526;2022-11-20T19:56:42;2.22;;;1.13;;
27684;SDS011;46113;50.130;8.526;2022-11-20T19:59:08;4.22;;;1.23;;
27684;SDS011;46113;50.130;8.526;2022-11-20T20:01:35;2.65;;;1.55;;
27684;SDS011;46113;50.130;8.526;2022-11-20T20:04:02;2.25;;;1.52;;
27684;SDS011;46113;50.130;8.526;2022-11-20T20:06:31;2.05;;;0.98;;
27684;SDS011;46113;50.130;8.526;2022-11-20T20:11:33;1.42;;;1.20;;
27684;SDS011;46113;50.130;8.526;2022-11-20T20:14:07;3.03;;;1.40;;
27684;SDS011;46113;50.130;8.526;2022-11-20T20:16:39;2.20;;;1.67;;
27684;SDS011;46113;50.130;8.526;2022-11-20T20:19:06;3.42;;;1.45;;
27684;SDS011;46113;50.130;8.526;2022-11-20T20:21:33;2.40;;;1.27;;
27684;SDS011;46113;50.130;8.526;2022-11-20T20:24:01;2.95;;;1.65;;
27684;SDS011;46113;50.130;8.526;2022-11-20T20:26:29;6.28;;;1.35;;
27684;SDS011;46113;50.130;8.526;2022-11-20T20:28:56;2.40;;;1.05;;
27684;SDS011;46113;50.130;8.526;2022-11-20T20:31:24;3.88;;;1.23;;
27684;SDS011;46113;50.130;8.526;2022-11-20T20:33:52;3.83;;;1.35;;
27684;SDS011;46113;50.130;8.526;2022-11-20T20:36:20;0.77;;;0.77;;
27684;SDS011;46113;50.130;8.526;2022-11-20T20:38:50;3.58;;;0.90;;
27684;SDS011;46113;50.130;8.526;2022-11-20T20:41:29;1.42;;;1.00;;
27684;SDS011;46113;50.130;8.526;2022-11-20T20:43:56;2.88;;;1.40;;
27684;SDS011;46113;50.130;8.526;2022-11-20T20:46:41;1.20;;;0.88;;
27684;SDS011;46113;50.130;8.526;2022-11-20T20:49:11;3.30;;;0.98;;
27684;SDS011;46113;50.130;8.526;2022-11-20T20:51:37;0.68;;;0.68;;
27684;SDS011;46113;50.130;8.526;2022-11-20T20:54:04;2.60;;;0.68;;
27684;SDS011;46113;50.130;8.526;2022-11-20T20:56:31;4.38;;;1.20;;
27684;SDS011;46113;50.130;8.526;2022-11-20T20:58:57;0.65;;;0.65;;
27684;SDS011;46113;50.130;8.526;2022-11-20T21:01:24;2.47;;;1.23;;
27684;SDS011;46113;50.130;8.526;2022-11-20T21:03:54;1.10;;;0.85;;
27684;SDS011;46113;50.130;8.526;2022-11-20T21:06:22;0.93;;;0.73;;
27684;SDS011;46113;50.130;8.526;2022-11-20T21:08:49;2.25;;;0.77;;
27684;SDS011;46113;50.130;8.526;2022-11-20T21:11:17;0.85;;;0.70;;
27684;SDS011;46113;50.130;8.526;2022-11-20T21:13:45;0.75;;;0.50;;
27684;SDS011;46113;50.130;8.526;2022-11-20T21:16:13;0.40;;;0.40;;
27684;SDS011;46113;50.130;8.526;2022-11-20T21:18:41;0.63;;;0.63;;
27684;SDS011;46113;50.130;8.526;2022-11-20T21:21:19;0.70;;;0.63;;
27684;SDS011;46113;50.130;8.526;2022-11-20T21:27:02;2.35;;;0.68;;
27684;SDS011;46113;50.130;8.526;2022-11-20T21:29:30;0.88;;;0.57;;
27684;SDS011;46113;50.130;8.526;2022-11-20T21:31:56;2.50;;;0.95;;
27684;SDS011;46113;50.130;8.526;2022-11-20T21:34:23;3.53;;;1.02;;
27684;SDS011;46113;50.130;8.526;2022-11-20T21:36:51;1.35;;;0.98;;
27684;SDS011;46113;50.130;8.526;2022-11-20T21:39:17;2.58;;;0.93;;
27684;SDS011;46113;50.130;8.526;2022-11-20T21:44:32;3.30;;;0.70;;
27684;SDS011;46113;50.130;8.526;2022-11-20T21:46:58;0.93;;;0.68;;